• pl
  • eng

Awiacja
Click on the bold red name to decode a message. 01:00 01.01.1970

METAR EPBY 241100Z 30010KT 260V330 CAVOK 08/M02 Q1024 =

METAR EPGD 241100Z 29012KT 260V330 9999 FEW025 07/00 Q1022 =

METAR EPKK 241100Z VRB03KT 9999 FEW028 11/03 Q1023 =

METAR EPKT 241100Z VRB03KT CAVOK 10/M01 Q1023 =

METAR EPLB 241100Z 30009KT CAVOK 10/M02 Q1022 =

METAR EPLL 241100Z 29008KT 240V360 CAVOK 10/M04 Q1023 =

METAR EPMO 241100Z 27010KT CAVOK 10/00 Q1023 =

METAR EPPO 241100Z 26005KT 250V360 CAVOK 11/M00 Q1024 =

METAR EPRA 241100Z 30008KT 270V330 CAVOK 11/M01 Q1023=

METAR EPRZ 241100Z 27008KT 230V310 9999 SCT040 11/00 Q1022 =

METAR EPSC 241100Z 29008KT 9999 FEW020 SCT023 07/02 Q1025 =

METAR EPSY 241100Z 29008KT 240V350 CAVOK 07/M01 Q1022=

METAR EPWA 241100Z 27008KT 230V310 CAVOK 10/M01 Q1023 NOSIG=

METAR EPWR 241100Z 27006KT 190V350 9999 SCT039 11/01 Q1024 =

METAR EPZG 241100Z VRB03KT 9999 SCT043 10/M01 Q1025 =
Awiacja.imgw.pl jest pogodowym serwisem informacyjnym
Instytutu Meteorologii i Gospodarki Wodnej Państwowego Instytutu Badawczego.
Copyright IMGW PIB 2009-2011© Wszelkie prawa zastrzeżone.